createdAt,value
2023-04-06T00:00:34.512Z,7.43
2023-04-06T00:03:01.162Z,7.43
2023-04-06T00:05:28.919Z,7.45
2023-04-06T00:07:56.956Z,7.45
2023-04-06T00:10:23.448Z,7.46
2023-04-06T00:12:49.938Z,7.46
2023-04-06T00:15:16.637Z,7.47
2023-04-06T00:17:43.155Z,7.48
2023-04-06T00:20:10.639Z,7.48
2023-04-06T00:22:37.065Z,7.47
2023-04-06T00:25:03.695Z,7.47
2023-04-06T00:27:30.521Z,7.46
2023-04-06T00:29:57.125Z,7.46
2023-04-06T00:32:23.633Z,7.43
2023-04-06T00:34:50.101Z,7.40
2023-04-06T00:37:16.575Z,7.38
2023-04-06T00:39:43.761Z,7.37
2023-04-06T00:42:16.630Z,7.35
2023-04-06T00:44:43.094Z,7.36
2023-04-06T00:47:10.242Z,7.36
2023-04-06T00:49:36.836Z,7.36
2023-04-06T00:52:03.341Z,7.35
2023-04-06T00:54:30.408Z,7.35
2023-04-06T00:56:57.268Z,7.36
2023-04-06T00:59:23.792Z,7.34
2023-04-06T01:01:50.535Z,7.36
2023-04-06T01:04:17.138Z,7.36
2023-04-06T01:06:43.609Z,7.35
2023-04-06T01:09:10.447Z,7.34
2023-04-06T01:11:37.142Z,7.34
2023-04-06T01:14:04.589Z,7.32
2023-04-06T01:16:31.388Z,7.32
2023-04-06T01:18:58.061Z,7.29
2023-04-06T01:21:24.643Z,7.28
2023-04-06T01:23:51.263Z,7.27
2023-04-06T01:26:17.857Z,7.26
2023-04-06T01:28:45.570Z,7.25
2023-04-06T01:31:12.148Z,7.24
2023-04-06T01:33:38.679Z,7.22
2023-04-06T01:36:05.581Z,7.20
2023-04-06T01:38:32.159Z,7.16
2023-04-06T01:40:58.697Z,7.14
2023-04-06T01:43:25.463Z,7.09
2023-04-06T01:45:52.012Z,7.08
2023-04-06T01:48:19.853Z,7.04
2023-04-06T01:50:46.420Z,7.02
2023-04-06T01:53:12.961Z,7.01
2023-04-06T01:55:39.461Z,7.00
2023-04-06T01:58:05.999Z,6.97
2023-04-06T02:00:32.558Z,6.97
2023-04-06T02:02:59.082Z,6.95
2023-04-06T02:05:26.573Z,6.93
2023-04-06T02:07:53.320Z,6.93
2023-04-06T02:10:19.929Z,6.90
2023-04-06T02:12:46.420Z,6.88
2023-04-06T02:15:14.390Z,6.88
2023-04-06T02:17:42.111Z,6.86
2023-04-06T02:20:09.426Z,6.84
2023-04-06T02:22:36.589Z,6.83
2023-04-06T02:25:03.635Z,6.81
2023-04-06T02:27:30.118Z,6.78
2023-04-06T02:29:56.565Z,6.77
2023-04-06T02:32:23.060Z,6.76
2023-04-06T02:34:49.586Z,6.75
2023-04-06T02:37:16.066Z,6.73
2023-04-06T02:39:42.663Z,6.70
2023-04-06T02:42:09.778Z,6.69
2023-04-06T02:44:36.368Z,6.67
2023-04-06T02:47:02.836Z,6.64
2023-04-06T02:49:29.386Z,6.62
2023-04-06T02:51:55.825Z,6.61
2023-04-06T02:54:22.314Z,6.58
2023-04-06T02:56:48.781Z,6.57
2023-04-06T02:59:15.546Z,6.56
2023-04-06T03:01:42.049Z,6.55
2023-04-06T03:04:08.621Z,6.53
2023-04-06T03:06:35.310Z,6.52
2023-04-06T03:09:01.841Z,6.51
2023-04-06T03:11:28.246Z,6.47
2023-04-06T03:13:54.803Z,6.48
2023-04-06T03:16:21.654Z,6.47
2023-04-06T03:18:48.484Z,6.44
2023-04-06T03:21:16.358Z,6.42
2023-04-06T03:23:43.562Z,6.42
2023-04-06T03:26:10.699Z,6.40
2023-04-06T03:28:37.135Z,6.41
2023-04-06T03:31:03.712Z,6.39
2023-04-06T03:33:30.349Z,6.38
2023-04-06T03:35:56.861Z,6.37
2023-04-06T03:38:23.399Z,6.37
2023-04-06T03:40:49.960Z,6.35
2023-04-06T03:43:16.644Z,6.35
2023-04-06T03:45:43.066Z,6.34
2023-04-06T03:48:09.775Z,6.34
2023-04-06T03:50:36.619Z,6.32
2023-04-06T03:53:04.166Z,6.31
2023-04-06T03:55:31.143Z,6.31
2023-04-06T03:57:57.696Z,6.30
2023-04-06T04:00:24.368Z,6.29
2023-04-06T04:02:50.971Z,6.28
2023-04-06T04:05:17.571Z,6.25
2023-04-06T04:07:44.128Z,6.23
2023-04-06T04:10:10.840Z,6.21
2023-04-06T04:12:37.447Z,6.18
2023-04-06T04:15:04.344Z,6.16
2023-04-06T04:17:30.915Z,6.12
2023-04-06T04:19:57.538Z,6.10
2023-04-06T04:22:24.119Z,6.07
2023-04-06T04:24:50.653Z,6.04
2023-04-06T04:27:17.142Z,6.03
2023-04-06T04:29:44.739Z,5.99
2023-04-06T04:32:11.235Z,5.99
2023-04-06T04:34:41.120Z,5.96
2023-04-06T04:37:07.799Z,5.94
2023-04-06T04:39:34.435Z,5.91
2023-04-06T04:42:00.940Z,5.87
2023-04-06T04:44:27.493Z,5.85
2023-04-06T04:46:54.041Z,5.82
2023-04-06T04:49:20.628Z,5.81
2023-04-06T04:51:47.086Z,5.80
2023-04-06T04:54:13.612Z,5.80
2023-04-06T04:56:40.241Z,5.78
2023-04-06T04:59:07.010Z,5.77
2023-04-06T05:01:43.748Z,5.76
2023-04-06T05:04:18.128Z,5.76
2023-04-06T05:06:44.623Z,5.75
2023-04-06T05:09:11.182Z,5.76
2023-04-06T05:11:37.693Z,5.76
2023-04-06T05:14:04.402Z,5.76
2023-04-06T05:16:31.102Z,5.77
2023-04-06T05:18:57.826Z,5.78
2023-04-06T05:21:26.094Z,5.80
2023-04-06T05:23:54.924Z,5.81
2023-04-06T05:26:21.459Z,5.82
2023-04-06T05:28:48.047Z,5.83
2023-04-06T05:31:15.718Z,5.84
2023-04-06T05:33:42.445Z,5.85
2023-04-06T05:36:09.235Z,5.86
2023-04-06T05:38:36.295Z,5.87
2023-04-06T05:41:02.884Z,5.84
2023-04-06T05:43:29.510Z,5.83
2023-04-06T05:45:56.198Z,5.82
2023-04-06T05:48:22.710Z,5.82
2023-04-06T05:50:51.609Z,5.81
2023-04-06T05:53:18.515Z,5.83
2023-04-06T05:55:45.078Z,5.84
2023-04-06T05:58:11.742Z,5.87
2023-04-06T06:00:38.392Z,5.89
2023-04-06T06:03:06.641Z,5.92
2023-04-06T06:05:33.414Z,5.96
2023-04-06T06:08:00.098Z,5.99
2023-04-06T06:10:26.697Z,6.02
2023-04-06T06:12:53.277Z,6.05
2023-04-06T06:15:19.980Z,6.08
2023-04-06T06:17:46.555Z,6.11
2023-04-06T06:20:13.525Z,6.12
2023-04-06T06:22:41.181Z,6.13
2023-04-06T06:25:07.941Z,6.16
2023-04-06T06:27:34.552Z,6.19
2023-04-06T06:30:01.221Z,6.23
2023-04-06T06:32:27.884Z,6.28
2023-04-06T06:34:54.451Z,6.33
2023-04-06T06:37:21.101Z,6.37
2023-04-06T06:39:47.917Z,6.42
2023-04-06T06:42:14.949Z,6.48
2023-04-06T06:44:41.653Z,6.52
2023-04-06T06:47:08.271Z,6.58
2023-04-06T06:49:34.984Z,6.62
2023-04-06T06:52:01.565Z,6.67
2023-04-06T06:54:28.093Z,6.72
2023-04-06T06:56:55.800Z,6.76
2023-04-06T06:59:22.517Z,6.83
2023-04-06T07:01:51.046Z,6.86
2023-04-06T07:04:17.674Z,6.92
2023-04-06T07:06:44.601Z,6.99
2023-04-06T07:09:11.210Z,7.03
2023-04-06T07:11:37.837Z,7.09
2023-04-06T07:14:04.472Z,7.14
2023-04-06T07:16:31.279Z,7.19
2023-04-06T07:18:57.935Z,7.24
2023-04-06T07:21:24.503Z,7.28
2023-04-06T07:23:51.925Z,7.34
2023-04-06T07:26:18.787Z,7.41
2023-04-06T07:28:45.404Z,7.45
2023-04-06T07:31:12.298Z,7.53
2023-04-06T07:33:38.961Z,7.58
2023-04-06T07:36:06.216Z,7.64
2023-04-06T07:38:32.862Z,7.69
2023-04-06T07:40:59.464Z,7.75
2023-04-06T07:43:26.228Z,7.82
2023-04-06T07:45:53.103Z,7.89
2023-04-06T07:48:19.764Z,7.95
2023-04-06T07:50:46.385Z,8.01
2023-04-06T07:53:13.006Z,8.04
2023-04-06T07:55:39.768Z,8.06
2023-04-06T07:58:06.456Z,8.11
2023-04-06T08:00:33.126Z,8.17
2023-04-06T08:02:59.765Z,8.22
2023-04-06T08:05:26.339Z,8.29
2023-04-06T08:07:52.873Z,8.34
2023-04-06T08:10:19.529Z,8.44
2023-04-06T08:12:46.117Z,8.51
2023-04-06T08:15:12.816Z,8.56
2023-04-06T08:17:39.350Z,8.64
2023-04-06T08:20:06.387Z,8.70
2023-04-06T08:22:32.976Z,8.77
2023-04-06T08:24:59.617Z,8.82
2023-04-06T08:27:26.351Z,8.89
2023-04-06T08:29:52.882Z,8.95
2023-04-06T08:32:19.346Z,9.01
2023-04-06T08:34:46.399Z,9.07
2023-04-06T08:37:12.927Z,9.14
2023-04-06T08:39:39.935Z,9.22
2023-04-06T08:42:16.801Z,9.29
2023-04-06T08:44:43.921Z,9.41
2023-04-06T08:47:10.660Z,9.51
2023-04-06T08:49:38.800Z,9.60
2023-04-06T08:52:08.678Z,9.70
2023-04-06T08:54:35.864Z,9.82
2023-04-06T08:57:03.822Z,9.90
2023-04-06T08:59:31.051Z,10.01
2023-04-06T09:01:58.042Z,10.10
2023-04-06T09:04:24.763Z,10.19
2023-04-06T09:06:51.316Z,10.28
2023-04-06T09:09:17.862Z,10.39
2023-04-06T09:11:45.145Z,10.51
2023-04-06T09:14:11.681Z,10.62
2023-04-06T09:16:42.985Z,10.73
2023-04-06T09:19:10.724Z,10.88
2023-04-06T09:21:38.139Z,11.03
2023-04-06T09:24:05.434Z,11.18
2023-04-06T09:26:34.818Z,11.32
2023-04-06T09:29:02.573Z,11.49
2023-04-06T09:31:31.587Z,11.62
2023-04-06T09:33:58.652Z,11.78
2023-04-06T09:36:36.695Z,11.88
2023-04-06T09:39:04.780Z,12.02
2023-04-06T09:41:32.367Z,12.12
2023-04-06T09:44:12.359Z,12.21
2023-04-06T09:46:57.770Z,12.34
2023-04-06T09:49:31.157Z,12.46
2023-04-06T09:52:07.605Z,12.55
2023-04-06T09:54:36.527Z,12.65
2023-04-06T09:57:21.254Z,12.77
2023-04-06T10:00:13.838Z,12.91
2023-04-06T10:03:23.194Z,13.11
2023-04-06T10:06:05.654Z,13.28
2023-04-06T10:08:36.061Z,13.43
2023-04-06T10:11:03.144Z,13.54
2023-04-06T10:13:29.810Z,13.64
2023-04-06T10:15:56.440Z,13.77
2023-04-06T10:18:23.799Z,13.90
2023-04-06T10:20:54.399Z,14.02
2023-04-06T10:23:32.084Z,14.08
2023-04-06T10:26:01.117Z,14.24
2023-04-06T10:28:36.725Z,14.32
2023-04-06T10:31:06.425Z,14.41
2023-04-06T10:33:33.308Z,14.53
2023-04-06T10:36:11.171Z,14.60
2023-04-06T10:38:41.381Z,14.73
2023-04-06T10:41:15.520Z,14.83
2023-04-06T10:43:42.778Z,14.94
2023-04-06T10:46:10.510Z,15.03
2023-04-06T10:48:42.278Z,15.09
2023-04-06T10:51:12.025Z,15.17
2023-04-06T10:53:40.684Z,15.28
2023-04-06T10:56:12.799Z,15.39
2023-04-06T10:58:39.899Z,15.53
2023-04-06T11:01:06.976Z,15.63
2023-04-06T11:03:44.282Z,15.72
2023-04-06T11:06:11.054Z,15.91
2023-04-06T11:08:38.810Z,16.12
2023-04-06T11:11:17.164Z,16.42
2023-04-06T11:13:45.326Z,16.87
2023-04-06T11:16:22.313Z,17.39
2023-04-06T11:19:03.656Z,17.91
2023-04-06T11:21:40.196Z,18.24
2023-04-06T11:25:02.826Z,18.39
2023-04-06T11:27:32.584Z,18.46
2023-04-06T11:30:01.115Z,18.34
2023-04-06T11:32:27.713Z,18.23
2023-04-06T11:34:54.300Z,18.08
2023-04-06T11:37:21.010Z,17.92
2023-04-06T11:39:52.887Z,17.77
2023-04-06T11:42:27.413Z,17.67
2023-04-06T11:44:59.141Z,17.66
2023-04-06T11:47:34.235Z,17.66
2023-04-06T11:50:11.916Z,17.69
2023-04-06T11:52:40.303Z,17.78
2023-04-06T11:55:18.256Z,17.78
2023-04-06T11:57:45.932Z,17.90
2023-04-06T12:00:13.382Z,17.99
2023-04-06T12:02:50.230Z,18.06
2023-04-06T12:05:16.888Z,18.17
2023-04-06T12:07:44.615Z,18.18
2023-04-06T12:10:11.225Z,18.21
2023-04-06T12:12:37.741Z,18.29
2023-04-06T12:15:05.949Z,18.53
2023-04-06T12:17:32.525Z,18.88
2023-04-06T12:20:05.179Z,19.29
2023-04-06T12:22:37.321Z,19.67
2023-04-06T12:25:04.296Z,20.00
2023-04-06T12:27:30.850Z,20.24
2023-04-06T12:29:57.338Z,20.44
2023-04-06T12:32:23.994Z,20.59
2023-04-06T12:34:53.248Z,20.73
2023-04-06T12:37:19.798Z,20.92
2023-04-06T12:39:46.394Z,21.11
2023-04-06T12:42:13.674Z,21.35
2023-04-06T12:44:40.534Z,21.65
2023-04-06T12:47:08.394Z,21.93
2023-04-06T12:49:35.088Z,22.16
2023-04-06T12:52:03.228Z,22.16
2023-04-06T12:54:29.811Z,22.07
2023-04-06T12:56:57.533Z,21.87
2023-04-06T12:59:26.033Z,21.65
2023-04-06T13:01:53.557Z,21.38
2023-04-06T13:04:20.072Z,21.13
2023-04-06T13:06:46.484Z,20.88
2023-04-06T13:09:12.953Z,20.63
2023-04-06T13:11:39.821Z,20.34
2023-04-06T13:14:06.305Z,20.07
2023-04-06T13:16:36.511Z,19.85
2023-04-06T13:19:03.528Z,19.72
2023-04-06T13:21:31.328Z,19.66
2023-04-06T13:23:57.864Z,19.64
2023-04-06T13:26:24.357Z,19.62
2023-04-06T13:28:51.152Z,19.62
2023-04-06T13:31:17.693Z,19.61
2023-04-06T13:33:44.321Z,19.57
2023-04-06T13:36:10.873Z,19.50
2023-04-06T13:38:39.774Z,19.46
2023-04-06T13:41:06.971Z,19.43
2023-04-06T13:43:33.454Z,19.36
2023-04-06T13:46:01.998Z,19.31
2023-04-06T13:48:28.475Z,19.25
2023-04-06T13:50:54.918Z,19.25
2023-04-06T13:53:21.405Z,19.28
2023-04-06T13:55:55.542Z,19.28
2023-04-06T13:58:22.091Z,19.35
2023-04-06T14:00:48.804Z,19.42
2023-04-06T14:03:15.657Z,19.50
2023-04-06T14:05:42.142Z,19.59
2023-04-06T14:08:08.522Z,19.67
2023-04-06T14:10:39.696Z,19.70
2023-04-06T14:13:06.323Z,19.75
2023-04-06T14:15:32.935Z,19.76
2023-04-06T14:17:59.284Z,19.76
2023-04-06T14:20:25.658Z,19.75
2023-04-06T14:22:53.635Z,19.73
2023-04-06T14:25:19.988Z,19.65
2023-04-06T14:27:46.428Z,19.55
2023-04-06T14:30:13.256Z,19.44
2023-04-06T14:32:39.970Z,19.33
2023-04-06T14:35:07.816Z,19.25
2023-04-06T14:37:34.613Z,19.21
2023-04-06T14:40:00.948Z,19.20
2023-04-06T14:42:27.377Z,19.22
2023-04-06T14:44:54.632Z,19.25
2023-04-06T14:47:22.410Z,19.29
2023-04-06T14:49:51.868Z,19.29
2023-04-06T14:52:18.410Z,19.30
2023-04-06T14:54:44.778Z,19.28
2023-04-06T14:57:11.193Z,19.21
2023-04-06T14:59:39.980Z,19.14
2023-04-06T15:02:07.438Z,19.02
2023-04-06T15:04:36.335Z,18.86
2023-04-06T15:07:02.746Z,18.69
2023-04-06T15:09:29.087Z,18.50
2023-04-06T15:11:56.444Z,18.31
2023-04-06T15:14:22.782Z,18.13
2023-04-06T15:16:49.193Z,17.95
2023-04-06T15:19:15.590Z,17.78
2023-04-06T15:21:42.098Z,17.64
2023-04-06T15:24:09.520Z,17.47
2023-04-06T15:26:37.816Z,17.36
2023-04-06T15:29:04.566Z,17.22
2023-04-06T15:31:37.463Z,17.10
2023-04-06T15:34:04.580Z,17.01
2023-04-06T15:36:31.235Z,16.92
2023-04-06T15:38:58.309Z,16.86
2023-04-06T15:41:26.735Z,16.80
2023-04-06T15:43:54.432Z,16.77
2023-04-06T15:46:21.691Z,16.74
2023-04-06T15:48:48.359Z,16.73
2023-04-06T15:51:14.886Z,16.74
2023-04-06T15:53:41.184Z,16.80
2023-04-06T15:56:10.961Z,16.85
2023-04-06T15:58:37.655Z,16.92
2023-04-06T16:01:18.134Z,16.95
2023-04-06T16:03:45.358Z,17.03
2023-04-06T16:06:12.678Z,17.04
2023-04-06T16:08:40.234Z,17.03
2023-04-06T16:11:07.017Z,17.04
2023-04-06T16:13:33.750Z,17.02
2023-04-06T16:16:00.652Z,16.97
2023-04-06T16:18:27.463Z,16.87
2023-04-06T16:20:53.981Z,16.75
2023-04-06T16:23:20.619Z,16.66
2023-04-06T16:25:47.107Z,16.55
2023-04-06T16:28:13.538Z,16.45
2023-04-06T16:30:41.472Z,16.34
2023-04-06T16:33:10.041Z,16.23
2023-04-06T16:35:36.735Z,16.13
2023-04-06T16:38:03.265Z,16.02
2023-04-06T16:40:29.736Z,15.89
2023-04-06T16:42:56.210Z,15.77
2023-04-06T16:45:22.736Z,15.64
2023-04-06T16:47:50.441Z,15.52
2023-04-06T16:50:17.452Z,15.39
2023-04-06T16:52:44.187Z,15.28
2023-04-06T16:55:10.991Z,15.18
2023-04-06T16:57:37.545Z,15.09
2023-04-06T17:00:05.720Z,15.01
2023-04-06T17:02:36.133Z,14.94
2023-04-06T17:05:04.204Z,14.86
2023-04-06T17:07:35.511Z,14.81
2023-04-06T17:10:03.050Z,14.77
2023-04-06T17:12:29.932Z,14.75
2023-04-06T17:14:56.542Z,14.70
2023-04-06T17:17:23.353Z,14.65
2023-04-06T17:19:50.126Z,14.62
2023-04-06T17:22:20.558Z,14.57
2023-04-06T17:24:50.686Z,14.53
2023-04-06T17:27:17.262Z,14.48
2023-04-06T17:29:43.756Z,14.45
2023-04-06T17:32:12.007Z,14.44
2023-04-06T17:34:38.573Z,14.40
2023-04-06T17:37:05.688Z,14.36
2023-04-06T17:39:32.365Z,14.30
2023-04-06T17:42:00.081Z,14.23
2023-04-06T17:44:26.792Z,14.15
2023-04-06T17:46:53.257Z,14.07
2023-04-06T17:49:19.798Z,13.99
2023-04-06T17:51:46.305Z,13.91
2023-04-06T17:54:12.950Z,13.83
2023-04-06T17:56:39.697Z,13.76
2023-04-06T17:59:09.113Z,13.69
2023-04-06T18:01:35.806Z,13.62
2023-04-06T18:04:02.560Z,13.55
2023-04-06T18:06:29.095Z,13.49
2023-04-06T18:08:55.736Z,13.41
2023-04-06T18:11:22.268Z,13.36
2023-04-06T18:13:49.056Z,13.28
2023-04-06T18:16:17.303Z,13.19
2023-04-06T18:18:43.988Z,13.10
2023-04-06T18:21:10.488Z,13.01
2023-04-06T18:23:37.822Z,12.91
2023-04-06T18:26:05.756Z,12.81
2023-04-06T18:28:33.116Z,12.71
2023-04-06T18:30:59.904Z,12.62
2023-04-06T18:33:29.908Z,12.54
2023-04-06T18:35:59.824Z,12.45
2023-04-06T18:38:26.311Z,12.34
2023-04-06T18:40:52.866Z,12.26
2023-04-06T18:43:19.317Z,12.16
2023-04-06T18:45:45.885Z,12.05
2023-04-06T18:48:13.664Z,11.97
2023-04-06T18:50:40.515Z,11.90
2023-04-06T18:53:07.112Z,11.82
2023-04-06T18:55:33.976Z,11.76
2023-04-06T18:58:00.643Z,11.72
2023-04-06T19:00:27.214Z,11.66
2023-04-06T19:02:53.804Z,11.62
2023-04-06T19:05:22.159Z,11.55
2023-04-06T19:07:52.256Z,11.52
2023-04-06T19:10:19.591Z,11.48
2023-04-06T19:12:46.787Z,11.43
2023-04-06T19:15:13.664Z,11.39
2023-04-06T19:17:40.619Z,11.34
2023-04-06T19:20:08.392Z,11.31
2023-04-06T19:22:36.851Z,11.27
2023-04-06T19:25:07.832Z,11.24
2023-04-06T19:27:34.913Z,11.23
2023-04-06T19:30:01.551Z,11.20
2023-04-06T19:32:30.132Z,11.16
2023-04-06T19:34:56.921Z,11.13
2023-04-06T19:37:23.422Z,11.09
2023-04-06T19:39:49.880Z,11.09
2023-04-06T19:42:16.569Z,11.06
2023-04-06T19:44:43.095Z,11.05
2023-04-06T19:47:11.782Z,11.03
2023-04-06T19:49:40.682Z,10.99
2023-04-06T19:52:07.781Z,10.94
2023-04-06T19:54:35.782Z,10.88
2023-04-06T19:57:03.206Z,10.82
2023-04-06T19:59:29.810Z,10.77
2023-04-06T20:01:56.430Z,10.71
2023-04-06T20:04:23.840Z,10.65
2023-04-06T20:06:51.113Z,10.60
2023-04-06T20:09:17.536Z,10.58
2023-04-06T20:11:44.101Z,10.53
2023-04-06T20:14:10.916Z,10.50
2023-04-06T20:16:50.575Z,10.47
2023-04-06T20:19:17.229Z,10.45
2023-04-06T20:21:43.942Z,10.41
2023-04-06T20:24:11.679Z,10.39
2023-04-06T20:26:38.422Z,10.38
2023-04-06T20:29:04.942Z,10.38
2023-04-06T20:31:31.514Z,10.39
2023-04-06T20:33:58.146Z,10.40
2023-04-06T20:36:24.620Z,10.43
2023-04-06T20:38:51.070Z,10.45
2023-04-06T20:41:17.554Z,10.46
2023-04-06T20:43:44.117Z,10.46
2023-04-06T20:46:16.316Z,10.46
2023-04-06T20:48:42.853Z,10.48
2023-04-06T20:51:18.128Z,10.46
2023-04-06T20:53:44.908Z,10.48
2023-04-06T20:56:11.699Z,10.48
2023-04-06T20:58:38.169Z,10.48
2023-04-06T21:01:04.711Z,10.50
2023-04-06T21:03:31.388Z,10.49
2023-04-06T21:05:59.054Z,10.49
2023-04-06T21:08:25.632Z,10.50
2023-04-06T21:10:52.154Z,10.51
2023-04-06T21:13:18.674Z,10.53
2023-04-06T21:15:45.291Z,10.56
2023-04-06T21:18:12.342Z,10.58
2023-04-06T21:20:39.908Z,10.60
2023-04-06T21:23:06.514Z,10.61
2023-04-06T21:25:32.982Z,10.63
2023-04-06T21:27:59.429Z,10.63
2023-04-06T21:30:25.996Z,10.65
2023-04-06T21:32:52.644Z,10.64
2023-04-06T21:35:19.321Z,10.64
2023-04-06T21:37:45.950Z,10.64
2023-04-06T21:40:12.997Z,10.64
2023-04-06T21:42:39.578Z,10.65
2023-04-06T21:45:06.485Z,10.66
2023-04-06T21:47:35.015Z,10.65
2023-04-06T21:50:01.515Z,10.67
2023-04-06T21:52:27.987Z,10.68
2023-04-06T21:54:54.527Z,10.69
2023-04-06T21:57:21.016Z,10.69
2023-04-06T21:59:47.893Z,10.70
2023-04-06T22:02:14.367Z,10.71
2023-04-06T22:04:41.070Z,10.71
2023-04-06T22:07:07.684Z,10.71
2023-04-06T22:09:34.176Z,10.72
2023-04-06T22:12:00.793Z,10.73
2023-04-06T22:14:27.252Z,10.73
2023-04-06T22:16:53.717Z,10.73
2023-04-06T22:19:20.442Z,10.72
2023-04-06T22:21:46.956Z,10.71
2023-04-06T22:24:13.703Z,10.73
2023-04-06T22:26:40.388Z,10.73
2023-04-06T22:29:06.869Z,10.75
2023-04-06T22:31:33.378Z,10.74
2023-04-06T22:33:59.861Z,10.73
2023-04-06T22:36:26.628Z,10.72
2023-04-06T22:38:53.116Z,10.71
2023-04-06T22:41:19.582Z,10.71
2023-04-06T22:43:46.028Z,10.69
2023-04-06T22:46:12.512Z,10.70
2023-04-06T22:48:38.963Z,10.69
2023-04-06T22:51:05.528Z,10.69
2023-04-06T22:53:31.954Z,10.68
2023-04-06T22:55:58.431Z,10.68
2023-04-06T22:58:24.856Z,10.68
2023-04-06T23:00:51.356Z,10.69
2023-04-06T23:03:17.889Z,10.67
2023-04-06T23:05:45.106Z,10.67
2023-04-06T23:08:11.587Z,10.67
2023-04-06T23:10:41.769Z,10.68
2023-04-06T23:13:09.381Z,10.67
2023-04-06T23:15:36.216Z,10.68
2023-04-06T23:18:03.113Z,10.69
2023-04-06T23:20:29.577Z,10.68
2023-04-06T23:22:56.290Z,10.69
2023-04-06T23:25:22.781Z,10.69
2023-04-06T23:27:49.224Z,10.70
2023-04-06T23:30:15.712Z,10.70
2023-04-06T23:32:42.254Z,10.69
2023-04-06T23:35:09.173Z,10.70
2023-04-06T23:37:35.618Z,10.69
2023-04-06T23:40:02.166Z,10.69
2023-04-06T23:42:29.315Z,10.69
2023-04-06T23:44:58.290Z,10.69
2023-04-06T23:47:24.774Z,10.69
2023-04-06T23:49:51.300Z,10.68
2023-04-06T23:52:17.754Z,10.68
2023-04-06T23:54:44.273Z,10.67
2023-04-06T23:57:10.877Z,10.67
2023-04-06T23:59:37.317Z,10.67
